sensor_id;sensor_type;location;lat;lon;timestamp;P1;durP1;ratioP1;P2;durP2;ratioP2
73898;SDS011;62234;50.892;12.724;2022-08-03T00:01:20;4.22;;;2.35;;
73898;SDS011;62234;50.892;12.724;2022-08-03T00:03:46;2.25;;;2.00;;
73898;SDS011;62234;50.892;12.724;2022-08-03T00:06:12;4.07;;;2.40;;
73898;SDS011;62234;50.892;12.724;2022-08-03T00:08:38;3.63;;;2.53;;
73898;SDS011;62234;50.892;12.724;2022-08-03T00:11:04;2.88;;;2.33;;
73898;SDS011;62234;50.892;12.724;2022-08-03T00:13:31;2.10;;;2.00;;
73898;SDS011;62234;50.892;12.724;2022-08-03T00:15:57;3.60;;;2.58;;
73898;SDS011;62234;50.892;12.724;2022-08-03T00:18:23;4.78;;;2.80;;
73898;SDS011;62234;50.892;12.724;2022-08-03T00:20:49;2.47;;;2.28;;
73898;SDS011;62234;50.892;12.724;2022-08-03T00:23:15;3.70;;;2.15;;
73898;SDS011;62234;50.892;12.724;2022-08-03T00:25:41;3.38;;;2.45;;
73898;SDS011;62234;50.892;12.724;2022-08-03T00:28:07;2.33;;;2.13;;
73898;SDS011;62234;50.892;12.724;2022-08-03T00:30:33;2.45;;;2.25;;
73898;SDS011;62234;50.892;12.724;2022-08-03T00:32:59;3.70;;;2.58;;
73898;SDS011;62234;50.892;12.724;2022-08-03T00:35:26;2.83;;;2.25;;
73898;SDS011;62234;50.892;12.724;2022-08-03T00:37:52;2.95;;;2.05;;
73898;SDS011;62234;50.892;12.724;2022-08-03T00:40:18;2.55;;;2.20;;
73898;SDS011;62234;50.892;12.724;2022-08-03T00:43:00;2.55;;;2.35;;
73898;SDS011;62234;50.892;12.724;2022-08-03T00:45:28;1.88;;;1.77;;
73898;SDS011;62234;50.892;12.724;2022-08-03T00:47:55;2.28;;;2.03;;
73898;SDS011;62234;50.892;12.724;2022-08-03T00:50:22;4.07;;;2.50;;
73898;SDS011;62234;50.892;12.724;2022-08-03T00:52:49;2.00;;;1.90;;
73898;SDS011;62234;50.892;12.724;2022-08-03T00:55:15;2.15;;;1.95;;
73898;SDS011;62234;50.892;12.724;2022-08-03T00:57:41;2.40;;;2.17;;
73898;SDS011;62234;50.892;12.724;2022-08-03T01:00:08;2.90;;;1.85;;
73898;SDS011;62234;50.892;12.724;2022-08-03T01:02:34;2.05;;;1.73;;
73898;SDS011;62234;50.892;12.724;2022-08-03T01:05:00;2.72;;;2.10;;
73898;SDS011;62234;50.892;12.724;2022-08-03T01:07:32;3.53;;;2.03;;
73898;SDS011;62234;50.892;12.724;2022-08-03T01:15:16;3.13;;;1.88;;
73898;SDS011;62234;50.892;12.724;2022-08-03T01:17:53;2.67;;;1.95;;
73898;SDS011;62234;50.892;12.724;2022-08-03T01:20:21;2.22;;;2.00;;
73898;SDS011;62234;50.892;12.724;2022-08-03T01:25:37;4.40;;;2.10;;
73898;SDS011;62234;50.892;12.724;2022-08-03T01:30:49;2.20;;;2.00;;
73898;SDS011;62234;50.892;12.724;2022-08-03T01:33:18;2.60;;;2.13;;
73898;SDS011;62234;50.892;12.724;2022-08-03T01:35:49;3.22;;;1.92;;
73898;SDS011;62234;50.892;12.724;2022-08-03T01:38:17;2.65;;;1.70;;
73898;SDS011;62234;50.892;12.724;2022-08-03T01:40:45;1.80;;;1.70;;
73898;SDS011;62234;50.892;12.724;2022-08-03T01:43:15;2.28;;;1.50;;
73898;SDS011;62234;50.892;12.724;2022-08-03T01:45:41;1.70;;;1.42;;
73898;SDS011;62234;50.892;12.724;2022-08-03T01:48:08;2.08;;;1.88;;
73898;SDS011;62234;50.892;12.724;2022-08-03T01:50:35;2.65;;;2.00;;
73898;SDS011;62234;50.892;12.724;2022-08-03T01:53:02;2.55;;;1.95;;
73898;SDS011;62234;50.892;12.724;2022-08-03T01:55:28;2.00;;;1.80;;
73898;SDS011;62234;50.892;12.724;2022-08-03T01:57:57;1.85;;;1.75;;
73898;SDS011;62234;50.892;12.724;2022-08-03T02:00:24;1.77;;;1.67;;
73898;SDS011;62234;50.892;12.724;2022-08-03T02:02:50;2.15;;;1.80;;
73898;SDS011;62234;50.892;12.724;2022-08-03T02:05:17;1.85;;;1.75;;
73898;SDS011;62234;50.892;12.724;2022-08-03T02:07:44;1.73;;;1.58;;
73898;SDS011;62234;50.892;12.724;2022-08-03T02:10:11;2.78;;;1.88;;
73898;SDS011;62234;50.892;12.724;2022-08-03T02:12:38;1.95;;;1.45;;
73898;SDS011;62234;50.892;12.724;2022-08-03T02:15:04;1.92;;;1.83;;
73898;SDS011;62234;50.892;12.724;2022-08-03T02:17:31;2.38;;;1.60;;
73898;SDS011;62234;50.892;12.724;2022-08-03T02:19:58;3.08;;;2.00;;
73898;SDS011;62234;50.892;12.724;2022-08-03T02:22:24;2.30;;;1.83;;
73898;SDS011;62234;50.892;12.724;2022-08-03T02:24:51;2.05;;;1.95;;
73898;SDS011;62234;50.892;12.724;2022-08-03T02:27:19;2.25;;;1.80;;
73898;SDS011;62234;50.892;12.724;2022-08-03T02:29:46;2.15;;;1.70;;
73898;SDS011;62234;50.892;12.724;2022-08-03T02:32:16;1.70;;;1.60;;
73898;SDS011;62234;50.892;12.724;2022-08-03T02:34:43;2.60;;;2.03;;
73898;SDS011;62234;50.892;12.724;2022-08-03T02:37:09;1.98;;;1.88;;
73898;SDS011;62234;50.892;12.724;2022-08-03T02:39:36;2.30;;;2.10;;
73898;SDS011;62234;50.892;12.724;2022-08-03T02:42:04;2.10;;;1.90;;
73898;SDS011;62234;50.892;12.724;2022-08-03T02:44:31;2.78;;;1.90;;
73898;SDS011;62234;50.892;12.724;2022-08-03T02:46:59;2.10;;;2.00;;
73898;SDS011;62234;50.892;12.724;2022-08-03T02:49:25;1.52;;;1.42;;
73898;SDS011;62234;50.892;12.724;2022-08-03T02:51:52;2.03;;;1.92;;
73898;SDS011;62234;50.892;12.724;2022-08-03T02:54:19;2.03;;;1.83;;
73898;SDS011;62234;50.892;12.724;2022-08-03T02:56:46;1.80;;;1.70;;
73898;SDS011;62234;50.892;12.724;2022-08-03T02:59:12;2.10;;;1.80;;
73898;SDS011;62234;50.892;12.724;2022-08-03T03:01:39;1.60;;;1.50;;
73898;SDS011;62234;50.892;12.724;2022-08-03T03:04:05;2.30;;;1.65;;
73898;SDS011;62234;50.892;12.724;2022-08-03T03:06:32;2.10;;;2.00;;
73898;SDS011;62234;50.892;12.724;2022-08-03T03:08:58;2.00;;;1.73;;
73898;SDS011;62234;50.892;12.724;2022-08-03T03:11:25;1.85;;;1.70;;
73898;SDS011;62234;50.892;12.724;2022-08-03T03:13:51;1.80;;;1.70;;
73898;SDS011;62234;50.892;12.724;2022-08-03T03:16:17;1.88;;;1.65;;
73898;SDS011;62234;50.892;12.724;2022-08-03T03:18:44;1.60;;;1.50;;
73898;SDS011;62234;50.892;12.724;2022-08-03T03:21:11;2.72;;;2.15;;
73898;SDS011;62234;50.892;12.724;2022-08-03T03:23:38;1.70;;;1.60;;
73898;SDS011;62234;50.892;12.724;2022-08-03T03:26:05;2.05;;;1.95;;
73898;SDS011;62234;50.892;12.724;2022-08-03T03:28:31;2.15;;;1.88;;
73898;SDS011;62234;50.892;12.724;2022-08-03T03:30:57;1.42;;;1.33;;
73898;SDS011;62234;50.892;12.724;2022-08-03T03:33:24;2.13;;;1.90;;
73898;SDS011;62234;50.892;12.724;2022-08-03T03:35:50;3.17;;;1.70;;
73898;SDS011;62234;50.892;12.724;2022-08-03T03:38:16;3.03;;;1.70;;
73898;SDS011;62234;50.892;12.724;2022-08-03T03:40:43;2.05;;;1.83;;
73898;SDS011;62234;50.892;12.724;2022-08-03T03:43:09;1.73;;;1.63;;
73898;SDS011;62234;50.892;12.724;2022-08-03T03:45:36;3.53;;;1.67;;
73898;SDS011;62234;50.892;12.724;2022-08-03T03:48:05;1.63;;;1.50;;
73898;SDS011;62234;50.892;12.724;2022-08-03T03:50:32;2.40;;;2.20;;
73898;SDS011;62234;50.892;12.724;2022-08-03T03:52:58;2.80;;;1.90;;
73898;SDS011;62234;50.892;12.724;2022-08-03T03:55:24;1.95;;;1.75;;
73898;SDS011;62234;50.892;12.724;2022-08-03T03:57:50;2.33;;;2.10;;
73898;SDS011;62234;50.892;12.724;2022-08-03T04:00:17;2.58;;;2.05;;
73898;SDS011;62234;50.892;12.724;2022-08-03T04:02:46;1.73;;;1.60;;
73898;SDS011;62234;50.892;12.724;2022-08-03T04:05:12;3.90;;;1.95;;
73898;SDS011;62234;50.892;12.724;2022-08-03T04:08:00;6.82;;;2.03;;
73898;SDS011;62234;50.892;12.724;2022-08-03T04:13:32;1.83;;;1.60;;
73898;SDS011;62234;50.892;12.724;2022-08-03T04:15:59;2.55;;;1.98;;
73898;SDS011;62234;50.892;12.724;2022-08-03T04:18:27;1.90;;;1.80;;
73898;SDS011;62234;50.892;12.724;2022-08-03T04:20:54;2.33;;;1.60;;
73898;SDS011;62234;50.892;12.724;2022-08-03T04:23:21;2.00;;;1.80;;
73898;SDS011;62234;50.892;12.724;2022-08-03T04:25:49;2.47;;;1.85;;
73898;SDS011;62234;50.892;12.724;2022-08-03T04:28:16;3.58;;;1.90;;
73898;SDS011;62234;50.892;12.724;2022-08-03T04:30:42;1.70;;;1.60;;
73898;SDS011;62234;50.892;12.724;2022-08-03T04:35:37;1.65;;;1.52;;
73898;SDS011;62234;50.892;12.724;2022-08-03T04:38:05;3.60;;;2.10;;
73898;SDS011;62234;50.892;12.724;2022-08-03T04:40:32;2.10;;;1.90;;
73898;SDS011;62234;50.892;12.724;2022-08-03T04:42:58;2.33;;;2.08;;
73898;SDS011;62234;50.892;12.724;2022-08-03T04:45:28;6.97;;;1.67;;
73898;SDS011;62234;50.892;12.724;2022-08-03T04:47:54;5.53;;;1.92;;
73898;SDS011;62234;50.892;12.724;2022-08-03T04:50:21;3.50;;;1.90;;
73898;SDS011;62234;50.892;12.724;2022-08-03T04:52:48;1.70;;;1.60;;
73898;SDS011;62234;50.892;12.724;2022-08-03T04:55:29;2.38;;;2.17;;
73898;SDS011;62234;50.892;12.724;2022-08-03T05:00:21;3.83;;;1.88;;
73898;SDS011;62234;50.892;12.724;2022-08-03T05:02:47;3.55;;;2.30;;
73898;SDS011;62234;50.892;12.724;2022-08-03T05:05:14;3.17;;;2.10;;
73898;SDS011;62234;50.892;12.724;2022-08-03T05:07:40;3.42;;;2.20;;
73898;SDS011;62234;50.892;12.724;2022-08-03T05:10:07;8.85;;;1.60;;
73898;SDS011;62234;50.892;12.724;2022-08-03T05:12:33;7.18;;;2.55;;
73898;SDS011;62234;50.892;12.724;2022-08-03T05:14:59;2.95;;;1.92;;
73898;SDS011;62234;50.892;12.724;2022-08-03T05:17:25;4.47;;;1.67;;
73898;SDS011;62234;50.892;12.724;2022-08-03T05:19:52;4.75;;;2.08;;
73898;SDS011;62234;50.892;12.724;2022-08-03T05:22:18;7.72;;;2.28;;
73898;SDS011;62234;50.892;12.724;2022-08-03T05:29:15;3.90;;;3.03;;
73898;SDS011;62234;50.892;12.724;2022-08-03T05:31:41;2.67;;;2.40;;
73898;SDS011;62234;50.892;12.724;2022-08-03T05:34:07;8.75;;;2.40;;
73898;SDS011;62234;50.892;12.724;2022-08-03T05:36:33;3.10;;;2.50;;
73898;SDS011;62234;50.892;12.724;2022-08-03T05:38:59;2.38;;;2.17;;
73898;SDS011;62234;50.892;12.724;2022-08-03T05:41:25;2.58;;;2.47;;
73898;SDS011;62234;50.892;12.724;2022-08-03T05:43:51;4.90;;;2.67;;
73898;SDS011;62234;50.892;12.724;2022-08-03T05:46:17;3.17;;;2.88;;
73898;SDS011;62234;50.892;12.724;2022-08-03T05:48:44;7.90;;;3.63;;
73898;SDS011;62234;50.892;12.724;2022-08-03T05:51:10;5.10;;;4.45;;
73898;SDS011;62234;50.892;12.724;2022-08-03T05:53:37;7.30;;;3.35;;
73898;SDS011;62234;50.892;12.724;2022-08-03T05:56:03;5.50;;;3.63;;
73898;SDS011;62234;50.892;12.724;2022-08-03T05:58:29;3.40;;;3.00;;
73898;SDS011;62234;50.892;12.724;2022-08-03T06:00:55;5.68;;;3.38;;
73898;SDS011;62234;50.892;12.724;2022-08-03T06:03:21;3.75;;;3.42;;
73898;SDS011;62234;50.892;12.724;2022-08-03T06:05:47;4.05;;;3.53;;
73898;SDS011;62234;50.892;12.724;2022-08-03T06:08:13;3.42;;;3.15;;
73898;SDS011;62234;50.892;12.724;2022-08-03T06:10:39;4.18;;;3.17;;
73898;SDS011;62234;50.892;12.724;2022-08-03T06:13:05;3.72;;;3.42;;
73898;SDS011;62234;50.892;12.724;2022-08-03T06:15:31;3.80;;;3.38;;
73898;SDS011;62234;50.892;12.724;2022-08-03T06:18:06;3.83;;;3.22;;
73898;SDS011;62234;50.892;12.724;2022-08-03T06:20:40;3.25;;;2.78;;
73898;SDS011;62234;50.892;12.724;2022-08-03T06:26:34;2.90;;;2.30;;
73898;SDS011;62234;50.892;12.724;2022-08-03T06:29:03;2.95;;;2.40;;
73898;SDS011;62234;50.892;12.724;2022-08-03T06:31:34;2.45;;;2.25;;
73898;SDS011;62234;50.892;12.724;2022-08-03T06:34:03;3.17;;;2.80;;
73898;SDS011;62234;50.892;12.724;2022-08-03T06:36:29;2.55;;;2.28;;
73898;SDS011;62234;50.892;12.724;2022-08-03T06:45:23;4.40;;;2.38;;
73898;SDS011;62234;50.892;12.724;2022-08-03T06:48:05;2.38;;;2.10;;
73898;SDS011;62234;50.892;12.724;2022-08-03T06:53:42;3.70;;;2.10;;
73898;SDS011;62234;50.892;12.724;2022-08-03T06:56:27;2.17;;;1.50;;
73898;SDS011;62234;50.892;12.724;2022-08-03T06:58:56;4.22;;;2.10;;
73898;SDS011;62234;50.892;12.724;2022-08-03T07:25:48;1.83;;;1.42;;
73898;SDS011;62234;50.892;12.724;2022-08-03T07:28:16;1.73;;;1.10;;
73898;SDS011;62234;50.892;12.724;2022-08-03T07:30:53;2.55;;;1.35;;
73898;SDS011;62234;50.892;12.724;2022-08-03T07:33:24;5.20;;;1.50;;
73898;SDS011;62234;50.892;12.724;2022-08-03T07:35:55;1.67;;;1.23;;
73898;SDS011;62234;50.892;12.724;2022-08-03T07:41:37;1.63;;;1.48;;
73898;SDS011;62234;50.892;12.724;2022-08-03T07:44:21;1.40;;;1.30;;
73898;SDS011;62234;50.892;12.724;2022-08-03T07:46:47;1.65;;;1.55;;
73898;SDS011;62234;50.892;12.724;2022-08-03T07:49:21;2.35;;;1.20;;
73898;SDS011;62234;50.892;12.724;2022-08-03T07:51:50;3.42;;;1.35;;
73898;SDS011;62234;50.892;12.724;2022-08-03T07:54:35;1.95;;;1.70;;
73898;SDS011;62234;50.892;12.724;2022-08-03T07:57:09;1.35;;;0.80;;
73898;SDS011;62234;50.892;12.724;2022-08-03T07:59:46;1.77;;;1.20;;
73898;SDS011;62234;50.892;12.724;2022-08-03T08:02:18;0.90;;;0.90;;
73898;SDS011;62234;50.892;12.724;2022-08-03T08:04:44;3.53;;;1.50;;
73898;SDS011;62234;50.892;12.724;2022-08-03T08:07:10;5.72;;;1.40;;
73898;SDS011;62234;50.892;12.724;2022-08-03T08:09:42;1.83;;;1.20;;
73898;SDS011;62234;50.892;12.724;2022-08-03T08:12:11;2.67;;;1.20;;
73898;SDS011;62234;50.892;12.724;2022-08-03T08:14:37;2.88;;;1.30;;
73898;SDS011;62234;50.892;12.724;2022-08-03T08:17:06;1.55;;;1.00;;
73898;SDS011;62234;50.892;12.724;2022-08-03T08:19:34;1.48;;;1.30;;
73898;SDS011;62234;50.892;12.724;2022-08-03T08:22:00;5.05;;;1.70;;
73898;SDS011;62234;50.892;12.724;2022-08-03T08:24:26;2.03;;;1.20;;
73898;SDS011;62234;50.892;12.724;2022-08-03T08:26:54;3.05;;;1.23;;
73898;SDS011;62234;50.892;12.724;2022-08-03T08:29:34;1.65;;;1.17;;
73898;SDS011;62234;50.892;12.724;2022-08-03T08:32:13;1.33;;;1.23;;
73898;SDS011;62234;50.892;12.724;2022-08-03T08:35:35;1.33;;;1.23;;
73898;SDS011;62234;50.892;12.724;2022-08-03T08:37:58;4.93;;;1.20;;
73898;SDS011;62234;50.892;12.724;2022-08-03T08:40:30;1.20;;;0.95;;
73898;SDS011;62234;50.892;12.724;2022-08-03T08:43:01;2.10;;;1.30;;
73898;SDS011;62234;50.892;12.724;2022-08-03T08:45:53;2.15;;;1.10;;
73898;SDS011;62234;50.892;12.724;2022-08-03T08:48:32;2.22;;;1.88;;
73898;SDS011;62234;50.892;12.724;2022-08-03T08:51:00;3.42;;;1.40;;
73898;SDS011;62234;50.892;12.724;2022-08-03T08:53:27;1.48;;;1.40;;
73898;SDS011;62234;50.892;12.724;2022-08-03T08:55:54;1.48;;;1.38;;
73898;SDS011;62234;50.892;12.724;2022-08-03T08:58:23;1.33;;;1.23;;
73898;SDS011;62234;50.892;12.724;2022-08-03T09:00:51;1.23;;;1.13;;
73898;SDS011;62234;50.892;12.724;2022-08-03T09:03:17;1.15;;;1.05;;
73898;SDS011;62234;50.892;12.724;2022-08-03T09:05:46;2.05;;;1.20;;
73898;SDS011;62234;50.892;12.724;2022-08-03T09:08:15;2.63;;;1.20;;
73898;SDS011;62234;50.892;12.724;2022-08-03T09:10:42;1.55;;;1.13;;
73898;SDS011;62234;50.892;12.724;2022-08-03T09:13:08;1.60;;;1.05;;
73898;SDS011;62234;50.892;12.724;2022-08-03T09:15:34;1.27;;;1.23;;
73898;SDS011;62234;50.892;12.724;2022-08-03T09:18:02;3.03;;;1.42;;
73898;SDS011;62234;50.892;12.724;2022-08-03T09:20:30;2.55;;;1.20;;
73898;SDS011;62234;50.892;12.724;2022-08-03T09:22:57;3.35;;;1.10;;
73898;SDS011;62234;50.892;12.724;2022-08-03T09:25:34;1.30;;;1.20;;
73898;SDS011;62234;50.892;12.724;2022-08-03T09:28:10;1.98;;;1.05;;
73898;SDS011;62234;50.892;12.724;2022-08-03T09:30:38;1.35;;;1.25;;
73898;SDS011;62234;50.892;12.724;2022-08-03T09:33:05;1.00;;;0.88;;
73898;SDS011;62234;50.892;12.724;2022-08-03T09:35:32;1.80;;;1.50;;
73898;SDS011;62234;50.892;12.724;2022-08-03T09:38:20;0.95;;;0.95;;
73898;SDS011;62234;50.892;12.724;2022-08-03T09:40:48;1.10;;;0.98;;
73898;SDS011;62234;50.892;12.724;2022-08-03T09:43:14;4.57;;;1.23;;
73898;SDS011;62234;50.892;12.724;2022-08-03T09:45:52;3.50;;;1.55;;
73898;SDS011;62234;50.892;12.724;2022-08-03T09:48:32;2.10;;;1.20;;
73898;SDS011;62234;50.892;12.724;2022-08-03T09:51:03;1.48;;;1.38;;
73898;SDS011;62234;50.892;12.724;2022-08-03T09:53:29;1.75;;;1.17;;
73898;SDS011;62234;50.892;12.724;2022-08-03T09:55:56;1.20;;;1.10;;
73898;SDS011;62234;50.892;12.724;2022-08-03T09:58:27;3.15;;;1.10;;
73898;SDS011;62234;50.892;12.724;2022-08-03T10:00:54;2.15;;;1.10;;
73898;SDS011;62234;50.892;12.724;2022-08-03T10:03:20;2.28;;;1.00;;
73898;SDS011;62234;50.892;12.724;2022-08-03T10:05:47;0.95;;;0.95;;
73898;SDS011;62234;50.892;12.724;2022-08-03T10:08:15;1.50;;;1.10;;
73898;SDS011;62234;50.892;12.724;2022-08-03T10:10:45;2.05;;;1.10;;
73898;SDS011;62234;50.892;12.724;2022-08-03T10:13:14;1.35;;;0.98;;
73898;SDS011;62234;50.892;12.724;2022-08-03T10:15:47;1.88;;;1.15;;
73898;SDS011;62234;50.892;12.724;2022-08-03T10:18:37;1.30;;;0.88;;
73898;SDS011;62234;50.892;12.724;2022-08-03T10:21:07;3.08;;;1.20;;
73898;SDS011;62234;50.892;12.724;2022-08-03T10:23:33;4.88;;;1.20;;
73898;SDS011;62234;50.892;12.724;2022-08-03T10:26:00;2.05;;;1.10;;
73898;SDS011;62234;50.892;12.724;2022-08-03T10:28:27;1.65;;;1.30;;
73898;SDS011;62234;50.892;12.724;2022-08-03T10:30:53;1.25;;;1.25;;
73898;SDS011;62234;50.892;12.724;2022-08-03T10:33:21;1.70;;;1.25;;
73898;SDS011;62234;50.892;12.724;2022-08-03T10:35:52;1.98;;;1.00;;
73898;SDS011;62234;50.892;12.724;2022-08-03T10:38:20;1.20;;;1.10;;
73898;SDS011;62234;50.892;12.724;2022-08-03T10:40:49;1.48;;;1.17;;
73898;SDS011;62234;50.892;12.724;2022-08-03T10:43:30;1.23;;;1.17;;
73898;SDS011;62234;50.892;12.724;2022-08-03T10:46:01;2.22;;;1.33;;
73898;SDS011;62234;50.892;12.724;2022-08-03T10:48:28;2.63;;;1.13;;
73898;SDS011;62234;50.892;12.724;2022-08-03T10:50:54;2.25;;;1.25;;
73898;SDS011;62234;50.892;12.724;2022-08-03T10:53:33;2.00;;;1.25;;
73898;SDS011;62234;50.892;12.724;2022-08-03T10:59:06;2.00;;;1.33;;
73898;SDS011;62234;50.892;12.724;2022-08-03T11:01:55;1.20;;;1.10;;
73898;SDS011;62234;50.892;12.724;2022-08-03T11:04:22;4.10;;;1.20;;
73898;SDS011;62234;50.892;12.724;2022-08-03T11:09:48;1.30;;;1.27;;
73898;SDS011;62234;50.892;12.724;2022-08-03T11:14:47;1.77;;;1.20;;
73898;SDS011;62234;50.892;12.724;2022-08-03T11:17:15;1.23;;;1.23;;
73898;SDS011;62234;50.892;12.724;2022-08-03T11:19:42;1.20;;;1.10;;
73898;SDS011;62234;50.892;12.724;2022-08-03T11:22:09;2.35;;;1.20;;
73898;SDS011;62234;50.892;12.724;2022-08-03T11:35:07;1.73;;;1.10;;
73898;SDS011;62234;50.892;12.724;2022-08-03T11:37:34;1.40;;;1.20;;
73898;SDS011;62234;50.892;12.724;2022-08-03T11:40:15;2.35;;;1.08;;
73898;SDS011;62234;50.892;12.724;2022-08-03T11:42:56;1.30;;;1.20;;
73898;SDS011;62234;50.892;12.724;2022-08-03T11:45:22;1.35;;;1.23;;
73898;SDS011;62234;50.892;12.724;2022-08-03T11:47:48;2.88;;;1.25;;
73898;SDS011;62234;50.892;12.724;2022-08-03T11:50:17;1.30;;;1.20;;
73898;SDS011;62234;50.892;12.724;2022-08-03T11:52:45;1.30;;;1.20;;
73898;SDS011;62234;50.892;12.724;2022-08-03T11:55:11;1.20;;;1.20;;
73898;SDS011;62234;50.892;12.724;2022-08-03T11:57:40;1.55;;;1.30;;
73898;SDS011;62234;50.892;12.724;2022-08-03T12:08:44;3.67;;;1.20;;
73898;SDS011;62234;50.892;12.724;2022-08-03T12:11:12;2.58;;;1.10;;
73898;SDS011;62234;50.892;12.724;2022-08-03T12:13:43;1.33;;;1.15;;
73898;SDS011;62234;50.892;12.724;2022-08-03T12:16:09;2.50;;;1.20;;
73898;SDS011;62234;50.892;12.724;2022-08-03T12:18:38;1.10;;;1.08;;
73898;SDS011;62234;50.892;12.724;2022-08-03T12:21:14;1.52;;;1.17;;
73898;SDS011;62234;50.892;12.724;2022-08-03T12:23:42;1.90;;;0.90;;
73898;SDS011;62234;50.892;12.724;2022-08-03T12:26:10;1.70;;;1.10;;
73898;SDS011;62234;50.892;12.724;2022-08-03T12:28:40;2.78;;;1.50;;
73898;SDS011;62234;50.892;12.724;2022-08-03T12:31:11;1.73;;;1.00;;
73898;SDS011;62234;50.892;12.724;2022-08-03T12:36:50;2.65;;;1.08;;
73898;SDS011;62234;50.892;12.724;2022-08-03T12:39:16;1.90;;;1.30;;
73898;SDS011;62234;50.892;12.724;2022-08-03T12:41:43;2.90;;;1.30;;
73898;SDS011;62234;50.892;12.724;2022-08-03T12:44:09;0.98;;;0.98;;
73898;SDS011;62234;50.892;12.724;2022-08-03T12:46:38;1.98;;;1.00;;
73898;SDS011;62234;50.892;12.724;2022-08-03T12:49:08;1.15;;;1.10;;
73898;SDS011;62234;50.892;12.724;2022-08-03T12:54:21;2.22;;;1.20;;
73898;SDS011;62234;50.892;12.724;2022-08-03T12:59:26;1.23;;;1.13;;
73898;SDS011;62234;50.892;12.724;2022-08-03T13:01:52;2.13;;;1.20;;
73898;SDS011;62234;50.892;12.724;2022-08-03T13:04:25;1.33;;;1.23;;
73898;SDS011;62234;50.892;12.724;2022-08-03T13:07:01;1.33;;;1.15;;
73898;SDS011;62234;50.892;12.724;2022-08-03T13:09:27;1.13;;;1.10;;
73898;SDS011;62234;50.892;12.724;2022-08-03T13:12:03;1.90;;;1.05;;
73898;SDS011;62234;50.892;12.724;2022-08-03T13:14:30;2.88;;;1.20;;
73898;SDS011;62234;50.892;12.724;2022-08-03T13:16:56;2.53;;;1.42;;
73898;SDS011;62234;50.892;12.724;2022-08-03T13:19:22;1.00;;;0.90;;
73898;SDS011;62234;50.892;12.724;2022-08-03T13:21:48;3.58;;;1.52;;
73898;SDS011;62234;50.892;12.724;2022-08-03T13:24:14;1.65;;;1.15;;
73898;SDS011;62234;50.892;12.724;2022-08-03T13:26:40;1.35;;;1.10;;
73898;SDS011;62234;50.892;12.724;2022-08-03T13:29:09;2.25;;;1.23;;
73898;SDS011;62234;50.892;12.724;2022-08-03T13:31:35;1.83;;;1.30;;
73898;SDS011;62234;50.892;12.724;2022-08-03T13:34:01;1.10;;;1.10;;
73898;SDS011;62234;50.892;12.724;2022-08-03T13:36:32;1.95;;;1.20;;
73898;SDS011;62234;50.892;12.724;2022-08-03T13:38:58;4.97;;;1.30;;
73898;SDS011;62234;50.892;12.724;2022-08-03T13:41:24;1.17;;;1.08;;
73898;SDS011;62234;50.892;12.724;2022-08-03T13:43:50;3.05;;;1.48;;
73898;SDS011;62234;50.892;12.724;2022-08-03T13:46:16;1.30;;;1.20;;
73898;SDS011;62234;50.892;12.724;2022-08-03T13:48:42;1.73;;;1.38;;
73898;SDS011;62234;50.892;12.724;2022-08-03T13:51:08;1.38;;;1.17;;
73898;SDS011;62234;50.892;12.724;2022-08-03T13:53:33;1.33;;;1.30;;
73898;SDS011;62234;50.892;12.724;2022-08-03T13:55:59;2.05;;;1.60;;
73898;SDS011;62234;50.892;12.724;2022-08-03T13:58:33;1.77;;;1.20;;
73898;SDS011;62234;50.892;12.724;2022-08-03T14:01:19;2.35;;;1.30;;
73898;SDS011;62234;50.892;12.724;2022-08-03T14:03:53;1.20;;;1.10;;
73898;SDS011;62234;50.892;12.724;2022-08-03T14:06:20;2.92;;;1.45;;
73898;SDS011;62234;50.892;12.724;2022-08-03T14:08:46;2.28;;;1.42;;
73898;SDS011;62234;50.892;12.724;2022-08-03T14:11:12;1.90;;;1.60;;
73898;SDS011;62234;50.892;12.724;2022-08-03T14:13:38;6.15;;;1.45;;
73898;SDS011;62234;50.892;12.724;2022-08-03T14:16:04;1.67;;;1.40;;
73898;SDS011;62234;50.892;12.724;2022-08-03T14:18:31;2.05;;;1.30;;
73898;SDS011;62234;50.892;12.724;2022-08-03T14:20:57;1.65;;;1.45;;
73898;SDS011;62234;50.892;12.724;2022-08-03T14:23:23;1.42;;;1.33;;
73898;SDS011;62234;50.892;12.724;2022-08-03T14:31:54;1.40;;;1.40;;
73898;SDS011;62234;50.892;12.724;2022-08-03T14:34:22;1.27;;;1.27;;
73898;SDS011;62234;50.892;12.724;2022-08-03T14:36:48;1.30;;;1.20;;
73898;SDS011;62234;50.892;12.724;2022-08-03T14:39:14;1.23;;;1.23;;
73898;SDS011;62234;50.892;12.724;2022-08-03T14:44:48;4.70;;;1.45;;
73898;SDS011;62234;50.892;12.724;2022-08-03T14:47:14;2.33;;;0.82;;
73898;SDS011;62234;50.892;12.724;2022-08-03T14:49:41;2.55;;;1.42;;
73898;SDS011;62234;50.892;12.724;2022-08-03T14:52:07;1.73;;;1.20;;
73898;SDS011;62234;50.892;12.724;2022-08-03T14:54:34;2.60;;;1.40;;
73898;SDS011;62234;50.892;12.724;2022-08-03T14:57:00;1.50;;;1.40;;
73898;SDS011;62234;50.892;12.724;2022-08-03T14:59:26;2.42;;;1.40;;
73898;SDS011;62234;50.892;12.724;2022-08-03T15:01:52;2.17;;;1.20;;
73898;SDS011;62234;50.892;12.724;2022-08-03T15:04:19;4.03;;;1.50;;
73898;SDS011;62234;50.892;12.724;2022-08-03T15:06:45;1.38;;;1.27;;
73898;SDS011;62234;50.892;12.724;2022-08-03T15:09:11;3.53;;;1.30;;
73898;SDS011;62234;50.892;12.724;2022-08-03T15:11:37;2.88;;;1.40;;
73898;SDS011;62234;50.892;12.724;2022-08-03T15:14:03;1.42;;;1.17;;
73898;SDS011;62234;50.892;12.724;2022-08-03T15:16:30;1.67;;;1.30;;
73898;SDS011;62234;50.892;12.724;2022-08-03T15:18:56;1.85;;;1.55;;
73898;SDS011;62234;50.892;12.724;2022-08-03T15:21:22;2.20;;;1.30;;
73898;SDS011;62234;50.892;12.724;2022-08-03T15:23:48;1.52;;;1.33;;
73898;SDS011;62234;50.892;12.724;2022-08-03T15:26:22;1.58;;;1.42;;
73898;SDS011;62234;50.892;12.724;2022-08-03T15:28:51;2.05;;;1.40;;
73898;SDS011;62234;50.892;12.724;2022-08-03T15:31:21;1.75;;;1.52;;
73898;SDS011;62234;50.892;12.724;2022-08-03T15:33:47;1.40;;;1.30;;
73898;SDS011;62234;50.892;12.724;2022-08-03T15:36:14;3.20;;;1.20;;
73898;SDS011;62234;50.892;12.724;2022-08-03T15:38:40;5.75;;;1.42;;
73898;SDS011;62234;50.892;12.724;2022-08-03T15:41:09;1.60;;;1.30;;
73898;SDS011;62234;50.892;12.724;2022-08-03T15:43:35;3.75;;;1.42;;
73898;SDS011;62234;50.892;12.724;2022-08-03T15:46:01;3.00;;;1.42;;
73898;SDS011;62234;50.892;12.724;2022-08-03T15:48:27;2.95;;;1.67;;
73898;SDS011;62234;50.892;12.724;2022-08-03T15:53:44;2.67;;;1.48;;
73898;SDS011;62234;50.892;12.724;2022-08-03T15:56:11;2.58;;;1.38;;
73898;SDS011;62234;50.892;12.724;2022-08-03T15:58:37;2.15;;;1.20;;
73898;SDS011;62234;50.892;12.724;2022-08-03T16:01:04;1.60;;;1.50;;
73898;SDS011;62234;50.892;12.724;2022-08-03T16:03:42;2.25;;;1.23;;
73898;SDS011;62234;50.892;12.724;2022-08-03T16:06:11;1.75;;;1.05;;
73898;SDS011;62234;50.892;12.724;2022-08-03T16:08:37;1.38;;;1.27;;
73898;SDS011;62234;50.892;12.724;2022-08-03T16:11:03;1.40;;;1.30;;
73898;SDS011;62234;50.892;12.724;2022-08-03T16:13:29;1.92;;;1.48;;
73898;SDS011;62234;50.892;12.724;2022-08-03T16:15:55;1.50;;;1.40;;
73898;SDS011;62234;50.892;12.724;2022-08-03T16:18:21;2.28;;;1.20;;
73898;SDS011;62234;50.892;12.724;2022-08-03T16:20:47;2.58;;;1.40;;
73898;SDS011;62234;50.892;12.724;2022-08-03T16:23:14;1.25;;;1.20;;
73898;SDS011;62234;50.892;12.724;2022-08-03T16:25:42;1.38;;;1.05;;
73898;SDS011;62234;50.892;12.724;2022-08-03T16:28:13;2.28;;;1.40;;
73898;SDS011;62234;50.892;12.724;2022-08-03T16:31:47;3.30;;;1.20;;
73898;SDS011;62234;50.892;12.724;2022-08-03T16:33:54;2.08;;;1.30;;